Plentywood, MT

12:27 AM MDT on October 25, 2014 (GMT -0600)
Crosby | Change Station
CLOSE
Current Station
Airport
Location: Crosby,
Elevation: 1949 ft
Nearby Weather Stations

Elev 1949 ft 48.93 °N, 103.30 °W | Updated 12 minutes ago

Partly Cloudy
Partly Cloudy
39 °F
Feels Like 32 °F
N
12
Wind Variable Wind from West

Today
High -- | Low -- °F
--% Chance of Precip.
Yesterday
High -- | Low -- °F
Precip. -- in
7:34 AM 5:50 PM
New Moon, 2% visible
Pressure 30.05 in
Visibility 10.0 miles
Clouds Clear
Windchill 32 °F
Dew Point 27 °F
Humidity 61%
Rainfall 0.00 in
Snow Depth Not available.
UV 0 out of 12
Pollen 2.30 out of 12
Air Quality Not available.
Flu Activity No Activity
METAR KD50 250615Z AUTO 26010KT 10SM CLR 04/M03 A3005 RMK AO2

More Conditions Fewer Conditions

Pressure 30.05 in
Visibility 10.0 miles
Clouds Clear
Windchill 32 °F
Dew Point 27 °F
Humidity 61%
Rainfall 0.00 in
Snow Depth Not available.
UV 0 out of 12
Pollen 2.30 out of 12
Air Quality Not available.
Flu Activity No Activity
METAR KD50 250615Z AUTO 26010KT 10SM CLR 04/M03 A3005 RMK AO2

More Conditions Fewer Conditions

10-Day Weather Forecast

Almanac

Astronomy

Oct. 25, 2014 Rise Set
Actual Time 7:34 AM MDT 5:50 PM MDT
Civil Twilight 7:02 AM MDT 6:22 PM MDT
Nautical Twilight 6:25 AM MDT 6:59 PM MDT
Astronomical Twilight 5:48 AM MDT 7:35 PM MDT
Moon 9:22 AM MDT 7:07 PM MDT
Length of Visible Light 11h 20m
Length of Day
10h 15m
Tomorrow will be 3m 20s shorter.
New Moon, 2% of the Moon is Illuminated
Today
New Moon
Oct 30
First Quarter
Nov 6
Full
Nov 14
Last Quarter
Nov 22
New

Community

WunderPhotos

Upload Photos

1,764,785 photos uploaded!

Nearby

Snow Depth

Station Depth Elevation
Rocky Boy 0 in 4700 ft
Crystal Lake 1 in 6050 ft
Daisy Peak 0 in 7600 ft
Spur Park 1 in 8100 ft
Deadman Creek 0 in 6450 ft

Earthquake Activity

City Distance Mag. Time & Date
No recent earthquake activity has been reported nearby.
Minimum magnitude displayed is 2.5.

Coastal Water Temperatures

Place Temperature
No Stations Reporting

Nearby Weather Stations